sensor_id;sensor_type;location;lat;lon;timestamp;pressure;altitude;pressure_sealevel;temperature;humidity
71791;BME280;59638;52.126;5.434;2023-07-08T00:00:17;101892.13;;;17.07;80.14
71791;BME280;59638;52.126;5.434;2023-07-08T00:02:44;101887.78;;;17.06;79.30
71791;BME280;59638;52.126;5.434;2023-07-08T00:05:12;101886.09;;;17.05;78.76
71791;BME280;59638;52.126;5.434;2023-07-08T00:07:40;101877.94;;;17.07;80.31
71791;BME280;59638;52.126;5.434;2023-07-08T00:12:40;101876.34;;;16.96;81.08
71791;BME280;59638;52.126;5.434;2023-07-08T00:15:08;101872.72;;;16.97;80.87
71791;BME280;59638;52.126;5.434;2023-07-08T00:17:35;101865.66;;;16.96;81.05
71791;BME280;59638;52.126;5.434;2023-07-08T00:20:10;101870.28;;;16.86;80.63
71791;BME280;59638;52.126;5.434;2023-07-08T00:22:38;101866.59;;;16.87;82.41
71791;BME280;59638;52.126;5.434;2023-07-08T00:25:05;101866.59;;;16.87;83.24
71791;BME280;59638;52.126;5.434;2023-07-08T00:27:31;101860.72;;;16.83;83.11
71791;BME280;59638;52.126;5.434;2023-07-08T00:29:58;101868.59;;;16.85;82.39
71791;BME280;59638;52.126;5.434;2023-07-08T00:32:26;101868.94;;;16.90;82.67
71791;BME280;59638;52.126;5.434;2023-07-08T00:34:53;101866.59;;;16.87;84.08
71791;BME280;59638;52.126;5.434;2023-07-08T00:37:21;101868.06;;;16.81;83.86
71791;BME280;59638;52.126;5.434;2023-07-08T00:39:47;101863.88;;;16.79;85.19
71791;BME280;59638;52.126;5.434;2023-07-08T00:42:19;101860.81;;;16.74;84.88
71791;BME280;59638;52.126;5.434;2023-07-08T00:44:48;101855.50;;;16.74;82.88
71791;BME280;59638;52.126;5.434;2023-07-08T00:47:15;101852.66;;;16.75;83.11
71791;BME280;59638;52.126;5.434;2023-07-08T00:49:52;101850.84;;;16.76;84.10
71791;BME280;59638;52.126;5.434;2023-07-08T00:52:24;101853.50;;;16.76;82.47
71791;BME280;59638;52.126;5.434;2023-07-08T00:54:56;101858.72;;;16.77;84.55
71791;BME280;59638;52.126;5.434;2023-07-08T00:57:26;101851.22;;;16.81;83.92
71791;BME280;59638;52.126;5.434;2023-07-08T01:02:25;101853.59;;;16.84;83.48
71791;BME280;59638;52.126;5.434;2023-07-08T01:05:05;101851.53;;;16.78;83.99
71791;BME280;59638;52.126;5.434;2023-07-08T01:07:33;101855.28;;;16.85;81.95
71791;BME280;59638;52.126;5.434;2023-07-08T01:10:07;101850.44;;;17.06;81.06
71791;BME280;59638;52.126;5.434;2023-07-08T01:12:43;101850.69;;;17.21;79.46
71791;BME280;59638;52.126;5.434;2023-07-08T01:15:10;101835.25;;;17.33;77.55
71791;BME280;59638;52.126;5.434;2023-07-08T01:17:37;101841.97;;;17.37;77.42
71791;BME280;59638;52.126;5.434;2023-07-08T01:20:05;101842.53;;;17.49;77.64
71791;BME280;59638;52.126;5.434;2023-07-08T01:22:35;101834.31;;;17.42;77.23
71791;BME280;59638;52.126;5.434;2023-07-08T01:25:02;101832.97;;;17.38;76.41
71791;BME280;59638;52.126;5.434;2023-07-08T01:27:32;101829.97;;;17.41;77.81
71791;BME280;59638;52.126;5.434;2023-07-08T01:30:00;101832.97;;;17.38;78.05
71791;BME280;59638;52.126;5.434;2023-07-08T01:32:28;101823.91;;;17.31;79.82
71791;BME280;59638;52.126;5.434;2023-07-08T01:35:00;101832.69;;;17.23;80.46
71791;BME280;59638;52.126;5.434;2023-07-08T01:37:37;101836.13;;;17.16;81.25
71791;BME280;59638;52.126;5.434;2023-07-08T01:42:45;101821.75;;;17.08;81.14
71791;BME280;59638;52.126;5.434;2023-07-08T01:45:14;101823.22;;;17.03;79.67
71791;BME280;59638;52.126;5.434;2023-07-08T01:47:46;101822.09;;;17.05;80.45
71791;BME280;59638;52.126;5.434;2023-07-08T01:50:15;101823.00;;;16.96;82.33
71791;BME280;59638;52.126;5.434;2023-07-08T01:52:42;101815.28;;;16.85;82.28
71791;BME280;59638;52.126;5.434;2023-07-08T01:55:09;101814.22;;;16.78;84.99
71791;BME280;59638;52.126;5.434;2023-07-08T01:57:35;101823.41;;;16.66;84.09
71791;BME280;59638;52.126;5.434;2023-07-08T02:00:02;101825.63;;;16.52;85.07
71791;BME280;59638;52.126;5.434;2023-07-08T02:02:28;101817.56;;;16.44;84.60
71791;BME280;59638;52.126;5.434;2023-07-08T02:04:55;101810.63;;;16.34;85.64
71791;BME280;59638;52.126;5.434;2023-07-08T02:07:21;101808.00;;;16.24;85.60
71791;BME280;59638;52.126;5.434;2023-07-08T02:09:48;101803.59;;;16.15;86.41
71791;BME280;59638;52.126;5.434;2023-07-08T02:12:14;101808.00;;;16.06;86.69
71791;BME280;59638;52.126;5.434;2023-07-08T02:14:41;101797.41;;;15.96;87.45
71791;BME280;59638;52.126;5.434;2023-07-08T02:17:07;101797.03;;;15.91;88.16
71791;BME280;59638;52.126;5.434;2023-07-08T02:19:34;101795.78;;;15.86;88.60
71791;BME280;59638;52.126;5.434;2023-07-08T02:22:00;101795.81;;;15.76;89.16
71791;BME280;59638;52.126;5.434;2023-07-08T02:24:27;101800.63;;;15.72;89.39
71791;BME280;59638;52.126;5.434;2023-07-08T02:26:53;101792.91;;;15.69;88.71
71791;BME280;59638;52.126;5.434;2023-07-08T02:29:20;101789.03;;;15.64;89.48
71791;BME280;59638;52.126;5.434;2023-07-08T02:31:46;101793.78;;;15.60;89.63
71791;BME280;59638;52.126;5.434;2023-07-08T02:34:13;101789.88;;;15.55;89.79
71791;BME280;59638;52.126;5.434;2023-07-08T02:36:39;101787.50;;;15.51;90.46
71791;BME280;59638;52.126;5.434;2023-07-08T02:39:05;101789.47;;;15.49;91.53
71791;BME280;59638;52.126;5.434;2023-07-08T02:41:32;101783.31;;;15.49;92.05
71791;BME280;59638;52.126;5.434;2023-07-08T02:43:58;101780.22;;;15.54;92.32
71791;BME280;59638;52.126;5.434;2023-07-08T02:46:25;101775.34;;;15.49;92.21
71791;BME280;59638;52.126;5.434;2023-07-08T02:48:51;101775.19;;;15.50;91.19
71791;BME280;59638;52.126;5.434;2023-07-08T02:51:18;101774.66;;;15.47;90.54
71791;BME280;59638;52.126;5.434;2023-07-08T02:53:44;101785.31;;;15.47;90.00
71791;BME280;59638;52.126;5.434;2023-07-08T02:56:11;101776.75;;;15.43;90.35
71791;BME280;59638;52.126;5.434;2023-07-08T02:58:37;101778.06;;;15.39;90.41
71791;BME280;59638;52.126;5.434;2023-07-08T03:01:04;101778.31;;;15.36;90.13
71791;BME280;59638;52.126;5.434;2023-07-08T03:03:32;101776.97;;;15.32;90.38
71791;BME280;59638;52.126;5.434;2023-07-08T03:06:03;101776.72;;;15.26;90.55
71791;BME280;59638;52.126;5.434;2023-07-08T03:08:31;101776.16;;;15.22;91.70
71791;BME280;59638;52.126;5.434;2023-07-08T03:11:00;101777.28;;;15.19;92.73
71791;BME280;59638;52.126;5.434;2023-07-08T03:13:28;101769.88;;;15.13;93.65
71791;BME280;59638;52.126;5.434;2023-07-08T03:15:56;101772.53;;;15.13;93.12
71791;BME280;59638;52.126;5.434;2023-07-08T03:18:23;101770.72;;;15.14;92.94
71791;BME280;59638;52.126;5.434;2023-07-08T03:20:50;101774.38;;;15.13;92.11
71791;BME280;59638;52.126;5.434;2023-07-08T03:23:17;101771.28;;;15.08;92.20
71791;BME280;59638;52.126;5.434;2023-07-08T03:25:43;101769.91;;;15.04;92.82
71791;BME280;59638;52.126;5.434;2023-07-08T03:28:10;101761.50;;;14.99;93.66
71791;BME280;59638;52.126;5.434;2023-07-08T03:30:42;101773.28;;;14.96;93.48
71791;BME280;59638;52.126;5.434;2023-07-08T03:33:09;101777.66;;;14.87;93.53
71791;BME280;59638;52.126;5.434;2023-07-08T03:35:37;101787.84;;;14.82;93.62
71791;BME280;59638;52.126;5.434;2023-07-08T03:38:04;101786.88;;;14.83;94.20
71791;BME280;59638;52.126;5.434;2023-07-08T03:40:31;101785.19;;;14.82;94.52
71791;BME280;59638;52.126;5.434;2023-07-08T03:42:58;101787.44;;;14.77;94.43
71791;BME280;59638;52.126;5.434;2023-07-08T03:45:25;101783.25;;;14.75;95.65
71791;BME280;59638;52.126;5.434;2023-07-08T03:47:52;101785.06;;;14.74;97.09
71791;BME280;59638;52.126;5.434;2023-07-08T03:50:23;101785.22;;;14.73;97.70
71791;BME280;59638;52.126;5.434;2023-07-08T03:52:53;101783.41;;;14.73;97.02
71791;BME280;59638;52.126;5.434;2023-07-08T03:55:21;101788.44;;;14.76;97.36
71791;BME280;59638;52.126;5.434;2023-07-08T03:57:47;101784.78;;;14.77;97.24
71791;BME280;59638;52.126;5.434;2023-07-08T04:00:14;101791.91;;;14.77;97.69
71791;BME280;59638;52.126;5.434;2023-07-08T04:02:45;101786.59;;;14.77;98.76
71791;BME280;59638;52.126;5.434;2023-07-08T04:05:14;101782.13;;;14.77;99.25
71791;BME280;59638;52.126;5.434;2023-07-08T04:07:41;101784.50;;;14.80;98.98
71791;BME280;59638;52.126;5.434;2023-07-08T04:10:09;101790.22;;;14.85;98.84
71791;BME280;59638;52.126;5.434;2023-07-08T04:12:36;101786.31;;;14.89;98.57
71791;BME280;59638;52.126;5.434;2023-07-08T04:15:03;101782.41;;;14.93;98.28
71791;BME280;59638;52.126;5.434;2023-07-08T04:17:30;101789.38;;;14.94;97.51
71791;BME280;59638;52.126;5.434;2023-07-08T04:19:56;101785.72;;;14.95;97.71
71791;BME280;59638;52.126;5.434;2023-07-08T04:22:23;101789.91;;;14.98;97.22
71791;BME280;59638;52.126;5.434;2023-07-08T04:24:50;101786.84;;;15.03;97.36
71791;BME280;59638;52.126;5.434;2023-07-08T04:27:17;101799.00;;;15.05;97.75
71791;BME280;59638;52.126;5.434;2023-07-08T04:29:44;101780.09;;;15.08;98.37
71791;BME280;59638;52.126;5.434;2023-07-08T04:32:10;101786.81;;;15.12;98.40
71791;BME280;59638;52.126;5.434;2023-07-08T04:34:37;101780.38;;;15.15;98.18
71791;BME280;59638;52.126;5.434;2023-07-08T04:37:04;101780.91;;;15.18;98.04
71791;BME280;59638;52.126;5.434;2023-07-08T04:39:31;101781.31;;;15.23;98.00
71791;BME280;59638;52.126;5.434;2023-07-08T04:41:58;101791.53;;;15.28;97.54
71791;BME280;59638;52.126;5.434;2023-07-08T04:44:24;101791.94;;;15.33;96.61
71791;BME280;59638;52.126;5.434;2023-07-08T04:46:53;101792.19;;;15.40;96.83
71791;BME280;59638;52.126;5.434;2023-07-08T04:49:21;101794.41;;;15.44;96.47
71791;BME280;59638;52.126;5.434;2023-07-08T04:51:47;101789.47;;;15.49;96.49
71791;BME280;59638;52.126;5.434;2023-07-08T04:54:14;101793.22;;;15.57;96.98
71791;BME280;59638;52.126;5.434;2023-07-08T04:56:46;101794.63;;;15.61;96.84
71791;BME280;59638;52.126;5.434;2023-07-08T04:59:15;101787.44;;;15.71;97.02
71791;BME280;59638;52.126;5.434;2023-07-08T05:01:43;101788.94;;;15.83;96.60
71791;BME280;59638;52.126;5.434;2023-07-08T05:04:15;101788.16;;;15.91;95.15
71791;BME280;59638;52.126;5.434;2023-07-08T05:06:42;101787.06;;;15.93;95.16
71791;BME280;59638;52.126;5.434;2023-07-08T05:09:09;101790.41;;;15.95;95.32
71791;BME280;59638;52.126;5.434;2023-07-08T05:11:36;101789.28;;;15.98;95.17
71791;BME280;59638;52.126;5.434;2023-07-08T05:14:03;101784.88;;;16.07;94.08
71791;BME280;59638;52.126;5.434;2023-07-08T05:16:32;101783.94;;;16.16;93.34
71791;BME280;59638;52.126;5.434;2023-07-08T05:18:59;101769.13;;;16.31;92.51
71791;BME280;59638;52.126;5.434;2023-07-08T05:21:26;101769.38;;;16.38;92.82
71791;BME280;59638;52.126;5.434;2023-07-08T05:23:53;101776.59;;;16.45;92.67
71791;BME280;59638;52.126;5.434;2023-07-08T05:26:20;101776.59;;;16.45;92.25
71791;BME280;59638;52.126;5.434;2023-07-08T05:28:46;101774.59;;;16.47;92.76
71791;BME280;59638;52.126;5.434;2023-07-08T05:31:12;101782.97;;;16.52;91.70
71791;BME280;59638;52.126;5.434;2023-07-08T05:33:39;101777.50;;;16.72;91.74
71791;BME280;59638;52.126;5.434;2023-07-08T05:36:06;101780.53;;;16.77;91.50
71791;BME280;59638;52.126;5.434;2023-07-08T05:38:32;101789.44;;;16.85;90.90
71791;BME280;59638;52.126;5.434;2023-07-08T05:40:59;101771.03;;;17.00;89.83
71791;BME280;59638;52.126;5.434;2023-07-08T05:43:26;101776.78;;;17.13;88.57
71791;BME280;59638;52.126;5.434;2023-07-08T05:45:57;101778.28;;;17.16;89.09
71791;BME280;59638;52.126;5.434;2023-07-08T05:48:36;101781.31;;;17.55;88.52
71791;BME280;59638;52.126;5.434;2023-07-08T05:51:03;101777.78;;;17.89;87.49
71791;BME280;59638;52.126;5.434;2023-07-08T05:53:29;101768.09;;;17.80;88.06
71791;BME280;59638;52.126;5.434;2023-07-08T05:55:56;101776.09;;;17.72;85.36
71791;BME280;59638;52.126;5.434;2023-07-08T05:58:22;101768.09;;;17.80;85.09
71791;BME280;59638;52.126;5.434;2023-07-08T06:00:56;101765.50;;;17.96;85.10
71791;BME280;59638;52.126;5.434;2023-07-08T06:03:25;101767.28;;;17.96;84.26
71791;BME280;59638;52.126;5.434;2023-07-08T06:05:52;101768.00;;;18.14;84.17
71791;BME280;59638;52.126;5.434;2023-07-08T06:08:19;101779.75;;;18.37;82.28
71791;BME280;59638;52.126;5.434;2023-07-08T06:10:46;101773.22;;;18.64;78.95
71791;BME280;59638;52.126;5.434;2023-07-08T06:13:13;101763.53;;;18.88;80.82
71791;BME280;59638;52.126;5.434;2023-07-08T06:15:41;101776.22;;;19.10;79.09
71791;BME280;59638;52.126;5.434;2023-07-08T06:18:08;101775.34;;;19.18;76.68
71791;BME280;59638;52.126;5.434;2023-07-08T06:20:34;101779.31;;;19.38;79.35
71791;BME280;59638;52.126;5.434;2023-07-08T06:23:01;101776.44;;;19.40;80.07
71791;BME280;59638;52.126;5.434;2023-07-08T06:25:27;101771.97;;;19.32;79.71
71791;BME280;59638;52.126;5.434;2023-07-08T06:27:54;101770.28;;;19.31;79.98
71791;BME280;59638;52.126;5.434;2023-07-08T06:30:20;101767.75;;;19.38;78.57
71791;BME280;59638;52.126;5.434;2023-07-08T06:32:47;101784.59;;;19.63;78.03
71791;BME280;59638;52.126;5.434;2023-07-08T06:35:13;101777.88;;;19.98;75.18
71791;BME280;59638;52.126;5.434;2023-07-08T06:37:40;101775.63;;;20.32;73.90
71791;BME280;59638;52.126;5.434;2023-07-08T06:40:07;101782.22;;;20.53;71.94
71791;BME280;59638;52.126;5.434;2023-07-08T06:42:34;101783.03;;;20.76;71.70
71791;BME280;59638;52.126;5.434;2023-07-08T06:45:00;101786.34;;;20.78;70.27
71791;BME280;59638;52.126;5.434;2023-07-08T06:47:27;101783.88;;;20.91;70.69
71791;BME280;59638;52.126;5.434;2023-07-08T06:49:53;101795.22;;;21.16;68.51
71791;BME280;59638;52.126;5.434;2023-07-08T06:52:24;101779.06;;;21.39;69.50
71791;BME280;59638;52.126;5.434;2023-07-08T06:54:51;101777.19;;;21.55;70.91
71791;BME280;59638;52.126;5.434;2023-07-08T06:57:17;101775.94;;;21.72;68.74
71791;BME280;59638;52.126;5.434;2023-07-08T06:59:43;101764.97;;;21.88;66.13
71791;BME280;59638;52.126;5.434;2023-07-08T07:02:10;101765.91;;;22.17;64.20
71791;BME280;59638;52.126;5.434;2023-07-08T07:04:36;101771.28;;;22.38;62.86
71791;BME280;59638;52.126;5.434;2023-07-08T07:07:03;101771.25;;;22.53;62.12
71791;BME280;59638;52.126;5.434;2023-07-08T07:09:31;101766.00;;;22.94;61.47
71791;BME280;59638;52.126;5.434;2023-07-08T07:11:57;101762.34;;;23.09;61.94
71791;BME280;59638;52.126;5.434;2023-07-08T07:14:24;101772.88;;;23.38;60.82
71791;BME280;59638;52.126;5.434;2023-07-08T07:16:53;101774.56;;;23.39;58.63
71791;BME280;59638;52.126;5.434;2023-07-08T07:19:33;101766.91;;;23.49;61.63
71791;BME280;59638;52.126;5.434;2023-07-08T07:22:00;101767.91;;;23.83;59.20
71791;BME280;59638;52.126;5.434;2023-07-08T07:24:27;101760.50;;;23.98;58.48
71791;BME280;59638;52.126;5.434;2023-07-08T07:26:53;101765.50;;;24.14;57.88
71791;BME280;59638;52.126;5.434;2023-07-08T07:29:22;101770.91;;;24.28;58.43
71791;BME280;59638;52.126;5.434;2023-07-08T07:31:49;101774.50;;;24.68;56.38
71791;BME280;59638;52.126;5.434;2023-07-08T07:34:16;101768.34;;;25.97;54.74
71791;BME280;59638;52.126;5.434;2023-07-08T07:36:42;101775.66;;;27.40;52.75
71791;BME280;59638;52.126;5.434;2023-07-08T07:39:09;101764.34;;;28.63;50.22
71791;BME280;59638;52.126;5.434;2023-07-08T07:41:35;101765.28;;;29.27;48.90
71791;BME280;59638;52.126;5.434;2023-07-08T07:44:02;101762.31;;;29.69;44.15
71791;BME280;59638;52.126;5.434;2023-07-08T07:46:29;101764.47;;;29.67;47.06
71791;BME280;59638;52.126;5.434;2023-07-08T07:48:55;101762.41;;;30.02;47.80
71791;BME280;59638;52.126;5.434;2023-07-08T07:51:22;101772.69;;;30.29;42.80
71791;BME280;59638;52.126;5.434;2023-07-08T07:53:48;101760.34;;;30.72;43.80
71791;BME280;59638;52.126;5.434;2023-07-08T07:56:15;101756.78;;;29.92;44.52
71791;BME280;59638;52.126;5.434;2023-07-08T07:58:41;101756.03;;;30.42;43.69
71791;BME280;59638;52.126;5.434;2023-07-08T08:01:08;101753.91;;;30.78;44.81
71791;BME280;59638;52.126;5.434;2023-07-08T08:03:34;101758.41;;;30.55;45.00
71791;BME280;59638;52.126;5.434;2023-07-08T08:06:01;101749.66;;;30.70;41.54
71791;BME280;59638;52.126;5.434;2023-07-08T08:08:27;101750.56;;;30.76;42.90
71791;BME280;59638;52.126;5.434;2023-07-08T08:10:54;101736.19;;;30.80;42.78
71791;BME280;59638;52.126;5.434;2023-07-08T08:13:20;101744.47;;;30.85;43.52
71791;BME280;59638;52.126;5.434;2023-07-08T08:15:47;101739.84;;;30.52;44.66
71791;BME280;59638;52.126;5.434;2023-07-08T08:18:13;101734.72;;;30.56;44.66
71791;BME280;59638;52.126;5.434;2023-07-08T08:20:40;101736.28;;;31.07;42.64
71791;BME280;59638;52.126;5.434;2023-07-08T08:23:07;101741.38;;;31.21;41.08
71791;BME280;59638;52.126;5.434;2023-07-08T08:25:34;101747.84;;;31.58;39.67
71791;BME280;59638;52.126;5.434;2023-07-08T08:28:00;101754.72;;;31.83;40.53
71791;BME280;59638;52.126;5.434;2023-07-08T08:30:27;101748.41;;;32.14;39.58
71791;BME280;59638;52.126;5.434;2023-07-08T08:32:53;101746.88;;;32.24;38.09
71791;BME280;59638;52.126;5.434;2023-07-08T08:35:20;101745.50;;;31.94;40.17
71791;BME280;59638;52.126;5.434;2023-07-08T08:37:46;101744.75;;;32.31;37.97
71791;BME280;59638;52.126;5.434;2023-07-08T08:40:15;101751.69;;;32.11;39.35
71791;BME280;59638;52.126;5.434;2023-07-08T08:42:51;101757.75;;;32.18;39.77
71791;BME280;59638;52.126;5.434;2023-07-08T08:45:20;101756.16;;;32.55;38.04
71791;BME280;59638;52.126;5.434;2023-07-08T08:47:51;101758.78;;;32.39;36.95
71791;BME280;59638;52.126;5.434;2023-07-08T08:53:02;101764.50;;;31.57;39.46
71791;BME280;59638;52.126;5.434;2023-07-08T08:55:30;101763.75;;;31.88;38.72
71791;BME280;59638;52.126;5.434;2023-07-08T09:00:56;101757.84;;;32.61;40.98
71791;BME280;59638;52.126;5.434;2023-07-08T09:03:38;101764.75;;;32.73;39.16
71791;BME280;59638;52.126;5.434;2023-07-08T09:06:10;101761.63;;;32.23;37.27
71791;BME280;59638;52.126;5.434;2023-07-08T09:08:38;101762.19;;;32.25;41.44
71791;BME280;59638;52.126;5.434;2023-07-08T09:13:41;101761.28;;;33.36;39.08
71791;BME280;59638;52.126;5.434;2023-07-08T09:19:07;101761.41;;;33.61;35.57
71791;BME280;59638;52.126;5.434;2023-07-08T09:21:53;101763.88;;;33.05;37.58
71791;BME280;59638;52.126;5.434;2023-07-08T09:24:44;101759.69;;;33.45;36.32
71791;BME280;59638;52.126;5.434;2023-07-08T09:27:11;101763.31;;;33.71;32.35
71791;BME280;59638;52.126;5.434;2023-07-08T09:29:38;101754.81;;;33.57;32.67
71791;BME280;59638;52.126;5.434;2023-07-08T09:39:57;101747.19;;;33.79;35.12
71791;BME280;59638;52.126;5.434;2023-07-08T09:42:32;101740.41;;;34.18;33.10
71791;BME280;59638;52.126;5.434;2023-07-08T09:45:03;101748.88;;;34.47;32.78
71791;BME280;59638;52.126;5.434;2023-07-08T09:47:37;101753.00;;;34.08;34.01
71791;BME280;59638;52.126;5.434;2023-07-08T09:50:16;101752.72;;;33.17;34.53
71791;BME280;59638;52.126;5.434;2023-07-08T09:52:46;101751.94;;;33.21;34.14
71791;BME280;59638;52.126;5.434;2023-07-08T09:55:13;101744.47;;;33.90;33.96
71791;BME280;59638;52.126;5.434;2023-07-08T09:57:40;101745.50;;;33.63;35.06
71791;BME280;59638;52.126;5.434;2023-07-08T10:00:10;101746.13;;;34.06;33.54
71791;BME280;59638;52.126;5.434;2023-07-08T10:03:15;101749.97;;;34.30;33.69
71791;BME280;59638;52.126;5.434;2023-07-08T10:05:36;101752.72;;;34.46;32.27
71791;BME280;59638;52.126;5.434;2023-07-08T10:08:15;101752.19;;;34.49;33.82
71791;BME280;59638;52.126;5.434;2023-07-08T10:10:43;101754.38;;;34.62;31.26
71791;BME280;59638;52.126;5.434;2023-07-08T10:13:38;101763.63;;;33.85;35.62
71791;BME280;59638;52.126;5.434;2023-07-08T10:18:42;101759.09;;;35.31;30.92
71791;BME280;59638;52.126;5.434;2023-07-08T10:26:56;101750.53;;;34.63;35.58
71791;BME280;59638;52.126;5.434;2023-07-08T10:45:26;101741.41;;;35.58;32.73
71791;BME280;59638;52.126;5.434;2023-07-08T10:48:21;101744.38;;;36.69;31.89
71791;BME280;59638;52.126;5.434;2023-07-08T10:53:36;101740.63;;;36.84;31.43
71791;BME280;59638;52.126;5.434;2023-07-08T10:56:14;101740.34;;;36.85;31.11
71791;BME280;59638;52.126;5.434;2023-07-08T11:04:38;101730.91;;;36.67;31.98
71791;BME280;59638;52.126;5.434;2023-07-08T11:07:22;101720.84;;;36.58;30.81
71791;BME280;59638;52.126;5.434;2023-07-08T11:09:58;101717.19;;;36.04;30.71
71791;BME280;59638;52.126;5.434;2023-07-08T11:12:33;101726.50;;;35.69;30.78
71791;BME280;59638;52.126;5.434;2023-07-08T11:15:13;101728.97;;;35.71;30.58
71791;BME280;59638;52.126;5.434;2023-07-08T11:17:49;101722.31;;;35.32;31.57
71791;BME280;59638;52.126;5.434;2023-07-08T11:20:24;101727.09;;;36.34;32.28
71791;BME280;59638;52.126;5.434;2023-07-08T11:22:59;101724.22;;;37.21;30.14
71791;BME280;59638;52.126;5.434;2023-07-08T11:25:27;101720.16;;;37.56;28.63
71791;BME280;59638;52.126;5.434;2023-07-08T11:27:57;101719.34;;;37.56;27.66
71791;BME280;59638;52.126;5.434;2023-07-08T11:30:28;101724.59;;;37.58;27.92
71791;BME280;59638;52.126;5.434;2023-07-08T11:33:03;101714.03;;;37.22;29.94
71791;BME280;59638;52.126;5.434;2023-07-08T11:35:41;101708.81;;;37.01;31.43
71791;BME280;59638;52.126;5.434;2023-07-08T11:38:15;101712.63;;;37.06;30.69
71791;BME280;59638;52.126;5.434;2023-07-08T11:40:56;101711.19;;;36.31;31.34
71791;BME280;59638;52.126;5.434;2023-07-08T11:43:28;101702.00;;;36.46;29.27
71791;BME280;59638;52.126;5.434;2023-07-08T11:46:04;101704.34;;;36.58;32.22
71791;BME280;59638;52.126;5.434;2023-07-08T11:48:40;101715.09;;;37.26;31.08
71791;BME280;59638;52.126;5.434;2023-07-08T11:51:08;101711.69;;;37.34;28.37
71791;BME280;59638;52.126;5.434;2023-07-08T11:53:38;101707.44;;;38.31;30.25
71791;BME280;59638;52.126;5.434;2023-07-08T12:01:45;101706.75;;;37.69;28.70
71791;BME280;59638;52.126;5.434;2023-07-08T12:09:25;101701.94;;;38.58;28.05
71791;BME280;59638;52.126;5.434;2023-07-08T12:11:55;101697.09;;;37.71;26.53
71791;BME280;59638;52.126;5.434;2023-07-08T12:14:22;101692.56;;;38.13;27.88
71791;BME280;59638;52.126;5.434;2023-07-08T12:16:49;101689.88;;;38.82;25.94
71791;BME280;59638;52.126;5.434;2023-07-08T12:19:18;101688.94;;;38.45;26.40
71791;BME280;59638;52.126;5.434;2023-07-08T12:21:46;101693.97;;;37.78;26.24
71791;BME280;59638;52.126;5.434;2023-07-08T12:24:13;101687.69;;;37.16;27.04
71791;BME280;59638;52.126;5.434;2023-07-08T12:26:41;101688.91;;;37.47;26.45
71791;BME280;59638;52.126;5.434;2023-07-08T12:29:11;101684.81;;;37.26;27.47
71791;BME280;59638;52.126;5.434;2023-07-08T12:31:41;101677.19;;;37.93;24.57
71791;BME280;59638;52.126;5.434;2023-07-08T12:34:16;101679.09;;;37.41;27.64
71791;BME280;59638;52.126;5.434;2023-07-08T12:36:45;101682.50;;;37.71;27.02
71791;BME280;59638;52.126;5.434;2023-07-08T12:39:15;101665.81;;;37.81;27.54
71791;BME280;59638;52.126;5.434;2023-07-08T12:41:44;101673.72;;;38.01;26.72
71791;BME280;59638;52.126;5.434;2023-07-08T12:44:29;101672.50;;;38.40;27.61
71791;BME280;59638;52.126;5.434;2023-07-08T12:46:55;101662.09;;;37.72;25.94
71791;BME280;59638;52.126;5.434;2023-07-08T12:49:22;101675.31;;;36.94;28.07
71791;BME280;59638;52.126;5.434;2023-07-08T12:51:54;101668.81;;;36.85;30.76
71791;BME280;59638;52.126;5.434;2023-07-08T12:54:20;101664.50;;;35.58;27.86
71791;BME280;59638;52.126;5.434;2023-07-08T12:56:48;101671.00;;;34.63;30.90
71791;BME280;59638;52.126;5.434;2023-07-08T12:59:21;101665.59;;;34.12;31.17
71791;BME280;59638;52.126;5.434;2023-07-08T13:01:50;101668.84;;;33.63;35.11
71791;BME280;59638;52.126;5.434;2023-07-08T13:04:18;101673.13;;;33.23;33.59
71791;BME280;59638;52.126;5.434;2023-07-08T13:06:46;101679.38;;;33.09;39.29
71791;BME280;59638;52.126;5.434;2023-07-08T13:09:35;101668.38;;;32.98;35.33
71791;BME280;59638;52.126;5.434;2023-07-08T13:12:20;101669.09;;;32.79;33.97
71791;BME280;59638;52.126;5.434;2023-07-08T13:14:51;101666.75;;;32.55;32.91
71791;BME280;59638;52.126;5.434;2023-07-08T13:17:18;101672.22;;;32.50;33.42
71791;BME280;59638;52.126;5.434;2023-07-08T13:19:46;101672.41;;;32.38;32.78
71791;BME280;59638;52.126;5.434;2023-07-08T13:22:18;101664.41;;;32.32;34.49
71791;BME280;59638;52.126;5.434;2023-07-08T13:24:45;101662.75;;;32.26;33.20
71791;BME280;59638;52.126;5.434;2023-07-08T13:27:18;101666.09;;;32.33;34.58
71791;BME280;59638;52.126;5.434;2023-07-08T13:29:46;101664.41;;;32.32;32.02
71791;BME280;59638;52.126;5.434;2023-07-08T13:32:13;101662.69;;;32.20;33.31
71791;BME280;59638;52.126;5.434;2023-07-08T13:34:39;101667.13;;;32.27;35.11
71791;BME280;59638;52.126;5.434;2023-07-08T13:37:11;101663.00;;;32.24;34.91
71791;BME280;59638;52.126;5.434;2023-07-08T13:39:44;101673.19;;;32.34;35.76
71791;BME280;59638;52.126;5.434;2023-07-08T13:42:11;101666.59;;;32.30;31.98
71791;BME280;59638;52.126;5.434;2023-07-08T13:44:45;101663.81;;;32.25;33.01
71791;BME280;59638;52.126;5.434;2023-07-08T13:47:41;101667.72;;;32.34;34.84
71791;BME280;59638;52.126;5.434;2023-07-08T13:50:20;101659.13;;;32.20;33.29
71791;BME280;59638;52.126;5.434;2023-07-08T13:52:54;101662.41;;;32.22;33.08
71791;BME280;59638;52.126;5.434;2023-07-08T13:55:22;101664.88;;;32.18;32.95
71791;BME280;59638;52.126;5.434;2023-07-08T13:57:59;101664.88;;;32.18;32.99
71791;BME280;59638;52.126;5.434;2023-07-08T14:00:30;101661.06;;;32.19;32.40
71791;BME280;59638;52.126;5.434;2023-07-08T14:02:58;101662.47;;;32.27;31.61
71791;BME280;59638;52.126;5.434;2023-07-08T14:05:24;101663.81;;;32.25;30.84
71791;BME280;59638;52.126;5.434;2023-07-08T14:07:51;101649.06;;;32.26;32.72
71791;BME280;59638;52.126;5.434;2023-07-08T14:10:18;101658.13;;;32.31;32.37